createdAt,value
2023-02-11T00:00:47.787Z,6.25
2023-02-11T00:01:47.635Z,6.25
2023-02-11T00:02:48.179Z,6.24
2023-02-11T00:03:47.944Z,6.21
2023-02-11T00:04:47.845Z,6.19
2023-02-11T00:05:48.193Z,6.20
2023-02-11T00:06:48.050Z,6.21
2023-02-11T00:07:48.120Z,6.21
2023-02-11T00:08:48.228Z,6.21
2023-02-11T00:09:48.320Z,6.20
2023-02-11T00:10:48.653Z,6.20
2023-02-11T00:11:48.492Z,6.20
2023-02-11T00:12:48.557Z,6.20
2023-02-11T00:13:48.627Z,6.20
2023-02-11T00:14:48.712Z,6.19
2023-02-11T00:15:49.146Z,6.20
2023-02-11T00:16:48.958Z,6.17
2023-02-11T00:17:48.985Z,6.16
2023-02-11T00:18:49.076Z,6.17
2023-02-11T00:19:49.251Z,6.16
2023-02-11T00:20:49.218Z,6.14
2023-02-11T00:21:49.335Z,6.13
2023-02-11T00:22:49.416Z,6.10
2023-02-11T00:23:49.514Z,6.03
2023-02-11T00:24:49.606Z,5.98
2023-02-11T00:25:49.965Z,5.96
2023-02-11T00:26:49.780Z,5.96
2023-02-11T00:27:49.851Z,5.93
2023-02-11T00:28:49.961Z,5.92
2023-02-11T00:29:50.048Z,5.88
2023-02-11T00:30:50.189Z,5.87
2023-02-11T00:31:50.352Z,5.87
2023-02-11T00:32:50.262Z,5.84
2023-02-11T00:33:50.352Z,5.81
2023-02-11T00:34:50.391Z,5.78
2023-02-11T00:35:50.775Z,5.77
2023-02-11T00:36:50.568Z,5.74
2023-02-11T00:37:50.657Z,5.74
2023-02-11T00:38:50.725Z,5.73
2023-02-11T00:39:50.805Z,5.73
2023-02-11T00:40:50.891Z,5.69
2023-02-11T00:41:51.004Z,5.65
2023-02-11T00:42:51.077Z,5.65
2023-02-11T00:43:51.151Z,5.60
2023-02-11T00:44:51.205Z,5.52
2023-02-11T00:45:51.693Z,5.47
2023-02-11T00:46:51.382Z,5.47
2023-02-11T00:47:51.467Z,5.44
2023-02-11T00:48:51.521Z,5.44
2023-02-11T00:49:51.601Z,5.42
2023-02-11T00:50:51.691Z,5.38
2023-02-11T00:51:51.799Z,5.37
2023-02-11T00:52:51.861Z,5.35
2023-02-11T00:53:51.956Z,5.35
2023-02-11T00:54:52.024Z,5.32
2023-02-11T00:55:52.311Z,5.27
2023-02-11T00:56:52.186Z,5.24
2023-02-11T00:57:52.245Z,5.22
2023-02-11T00:58:52.316Z,5.19
2023-02-11T00:59:52.415Z,5.15
2023-02-11T01:00:52.490Z,5.12
2023-02-11T01:01:52.601Z,5.09
2023-02-11T01:02:52.660Z,5.04
2023-02-11T01:03:52.763Z,5.01
2023-02-11T01:04:52.847Z,4.99
2023-02-11T01:05:53.067Z,4.97
2023-02-11T01:06:53.025Z,4.90
2023-02-11T01:07:53.085Z,4.93
2023-02-11T01:08:53.145Z,4.88
2023-02-11T01:09:53.249Z,4.88
2023-02-11T01:10:53.337Z,4.84
2023-02-11T01:11:53.421Z,4.83
2023-02-11T01:12:53.497Z,4.79
2023-02-11T01:13:53.588Z,4.71
2023-02-11T01:14:53.644Z,4.67
2023-02-11T01:15:53.938Z,4.68
2023-02-11T01:16:53.834Z,4.65
2023-02-11T01:17:53.913Z,4.68
2023-02-11T01:18:54.002Z,4.64
2023-02-11T01:19:54.104Z,4.59
2023-02-11T01:20:54.185Z,4.61
2023-02-11T01:21:54.251Z,4.59
2023-02-11T01:22:54.344Z,4.56
2023-02-11T01:23:54.423Z,4.54
2023-02-11T01:24:54.501Z,4.53
2023-02-11T01:25:54.591Z,4.51
2023-02-11T01:26:54.725Z,4.51
2023-02-11T01:27:54.767Z,4.49
2023-02-11T01:28:54.842Z,4.46
2023-02-11T01:29:54.934Z,4.44
2023-02-11T01:30:55.066Z,4.46
2023-02-11T01:31:55.138Z,4.39
2023-02-11T01:32:55.138Z,4.28
2023-02-11T01:33:55.196Z,4.25
2023-02-11T01:34:55.274Z,4.25
2023-02-11T01:35:55.363Z,4.24
2023-02-11T01:38:44.813Z,4.26
2023-02-11T01:39:45.872Z,4.26
2023-02-11T01:40:45.990Z,4.25
2023-02-11T01:41:46.062Z,4.24
2023-02-11T01:42:46.142Z,4.21
2023-02-11T01:43:46.259Z,4.20
2023-02-11T01:44:46.336Z,4.20
2023-02-11T01:45:46.381Z,4.17
2023-02-11T01:46:46.504Z,4.13
2023-02-11T01:47:46.532Z,4.11
2023-02-11T01:48:46.748Z,4.13
2023-02-11T01:49:46.728Z,4.08
2023-02-11T01:50:46.832Z,4.10
2023-02-11T01:51:46.914Z,4.06
2023-02-11T01:52:46.989Z,4.04
2023-02-11T01:53:47.062Z,4.04
2023-02-11T01:54:47.135Z,3.99
2023-02-11T01:55:47.379Z,4.00
2023-02-11T01:56:47.302Z,3.99
2023-02-11T01:57:47.388Z,3.96
2023-02-11T01:58:47.503Z,3.93
2023-02-11T01:59:47.552Z,3.95
2023-02-11T02:00:47.637Z,3.90
2023-02-11T02:01:47.803Z,3.90
2023-02-11T02:02:47.795Z,3.89
2023-02-11T02:03:52.215Z,3.86
2023-02-11T02:04:47.953Z,3.86
2023-02-11T02:05:48.424Z,3.89
2023-02-11T02:06:48.125Z,3.89
2023-02-11T02:07:48.225Z,3.90
2023-02-11T02:08:48.291Z,3.93
2023-02-11T02:09:48.409Z,3.90
2023-02-11T02:10:48.460Z,3.90
2023-02-11T02:11:48.541Z,3.89
2023-02-11T02:12:48.612Z,3.92
2023-02-11T02:13:48.703Z,3.95
2023-02-11T02:14:48.815Z,3.95
2023-02-11T02:15:49.425Z,3.95
2023-02-11T02:16:48.952Z,3.96
2023-02-11T02:17:49.038Z,3.98
2023-02-11T02:18:49.123Z,3.99
2023-02-11T02:19:49.216Z,3.98
2023-02-11T02:20:49.287Z,3.98
2023-02-11T02:21:49.355Z,3.95
2023-02-11T02:22:49.460Z,3.93
2023-02-11T02:23:49.530Z,3.90
2023-02-11T02:24:49.644Z,3.90
2023-02-11T02:25:50.087Z,3.86
2023-02-11T02:26:49.778Z,3.88
2023-02-11T02:27:49.857Z,3.84
2023-02-11T02:28:49.951Z,3.81
2023-02-11T02:29:50.054Z,3.80
2023-02-11T02:30:50.184Z,3.74
2023-02-11T02:31:50.261Z,3.74
2023-02-11T02:32:50.293Z,3.72
2023-02-11T02:33:50.359Z,3.75
2023-02-11T02:34:50.463Z,3.72
2023-02-11T02:35:50.761Z,3.72
2023-02-11T02:36:50.606Z,3.71
2023-02-11T02:37:50.667Z,3.70
2023-02-11T02:38:50.749Z,3.68
2023-02-11T02:39:50.835Z,3.68
2023-02-11T02:40:50.894Z,3.64
2023-02-11T02:41:50.951Z,3.67
2023-02-11T02:42:51.058Z,3.64
2023-02-11T02:43:51.130Z,3.64
2023-02-11T02:44:51.233Z,3.64
2023-02-11T02:45:51.538Z,3.63
2023-02-11T02:46:51.421Z,3.64
2023-02-11T02:47:51.469Z,3.67
2023-02-11T02:48:51.570Z,3.63
2023-02-11T02:49:51.676Z,3.64
2023-02-11T02:50:51.750Z,3.63
2023-02-11T02:51:51.839Z,3.60
2023-02-11T02:52:51.912Z,3.59
2023-02-11T02:53:52.000Z,3.54
2023-02-11T02:54:52.112Z,3.54
2023-02-11T02:55:52.367Z,3.53
2023-02-11T02:56:52.258Z,3.45
2023-02-11T02:57:52.304Z,3.45
2023-02-11T02:58:52.414Z,3.44
2023-02-11T02:59:52.544Z,3.42
2023-02-11T03:00:52.647Z,3.42
2023-02-11T03:01:52.635Z,3.44
2023-02-11T03:02:52.732Z,3.44
2023-02-11T03:03:52.867Z,3.42
2023-02-11T03:04:52.892Z,3.44
2023-02-11T03:05:53.321Z,3.41
2023-02-11T03:06:53.053Z,3.42
2023-02-11T03:07:53.145Z,3.44
2023-02-11T03:08:53.242Z,3.42
2023-02-11T03:09:53.333Z,3.45
2023-02-11T03:10:53.410Z,3.44
2023-02-11T03:11:53.510Z,3.41
2023-02-11T03:12:53.592Z,3.39
2023-02-11T03:13:53.696Z,3.35
2023-02-11T03:14:53.782Z,3.31
2023-02-11T03:15:54.338Z,3.26
2023-02-11T03:16:53.946Z,3.30
2023-02-11T03:17:54.022Z,3.28
2023-02-11T03:18:54.104Z,3.23
2023-02-11T03:19:54.195Z,3.15
2023-02-11T03:20:54.360Z,3.05
2023-02-11T03:21:54.363Z,3.02
2023-02-11T03:22:54.437Z,2.99
2023-02-11T03:23:54.509Z,2.98
2023-02-11T03:24:54.620Z,2.98
2023-02-11T03:25:54.683Z,2.99
2023-02-11T03:26:54.765Z,2.99
2023-02-11T03:27:54.899Z,2.90
2023-02-11T03:28:54.969Z,2.90
2023-02-11T03:29:55.061Z,2.89
2023-02-11T03:30:55.125Z,2.87
2023-02-11T03:31:55.261Z,2.84
2023-02-11T03:32:55.284Z,2.84
2023-02-11T03:33:55.374Z,2.80
2023-02-11T03:34:55.447Z,2.80
2023-02-11T03:35:55.525Z,2.79
2023-02-11T03:36:55.584Z,2.79
2023-02-11T03:37:55.679Z,2.76
2023-02-11T03:38:55.737Z,2.80
2023-02-11T03:39:55.856Z,2.81
2023-02-11T03:40:55.920Z,2.81
2023-02-11T03:41:56.006Z,2.80
2023-02-11T03:42:56.100Z,2.81
2023-02-11T03:43:56.187Z,2.80
2023-02-11T03:44:56.277Z,2.81
2023-02-11T03:45:56.375Z,2.83
2023-02-11T03:46:56.383Z,2.84
2023-02-11T03:47:56.480Z,2.84
2023-02-11T03:48:56.535Z,2.87
2023-02-11T03:49:56.640Z,2.90
2023-02-11T03:50:56.698Z,2.92
2023-02-11T03:51:56.786Z,2.83
2023-02-11T03:52:56.854Z,2.71
2023-02-11T03:53:56.925Z,2.69
2023-02-11T03:54:57.034Z,2.63
2023-02-11T03:55:57.092Z,2.63
2023-02-11T03:56:57.153Z,2.63
2023-02-11T03:57:57.233Z,2.63
2023-02-11T03:58:57.295Z,2.65
2023-02-11T03:59:57.397Z,2.65
2023-02-11T04:00:57.512Z,2.65
2023-02-11T04:01:57.554Z,2.58
2023-02-11T04:02:57.618Z,2.53
2023-02-11T04:03:57.703Z,2.56
2023-02-11T04:04:57.786Z,2.59
2023-02-11T04:05:57.848Z,2.58
2023-02-11T04:06:57.930Z,2.62
2023-02-11T04:07:58.013Z,2.62
2023-02-11T04:08:58.102Z,2.65
2023-02-11T04:09:58.215Z,2.63
2023-02-11T04:10:58.271Z,2.61
2023-02-11T04:11:58.381Z,2.62
2023-02-11T04:12:58.435Z,2.62
2023-02-11T04:13:58.535Z,2.59
2023-02-11T04:14:58.641Z,2.58
2023-02-11T04:15:58.767Z,2.62
2023-02-11T04:16:58.795Z,2.62
2023-02-11T04:17:58.874Z,2.59
2023-02-11T04:18:58.961Z,2.58
2023-02-11T04:19:59.061Z,2.56
2023-02-11T04:20:59.115Z,2.56
2023-02-11T04:21:59.195Z,2.58
2023-02-11T04:22:59.283Z,2.58
2023-02-11T04:23:59.366Z,2.59
2023-02-11T04:24:59.447Z,2.58
2023-02-11T04:25:59.502Z,2.58
2023-02-11T04:26:59.597Z,2.61
2023-02-11T04:27:59.737Z,2.59
2023-02-11T04:28:59.742Z,2.61
2023-02-11T04:29:59.842Z,2.59
2023-02-11T04:30:59.898Z,2.58
2023-02-11T04:32:00.103Z,2.55
2023-02-11T04:33:00.043Z,2.51
2023-02-11T04:34:00.131Z,2.50
2023-02-11T04:35:00.217Z,2.47
2023-02-11T04:36:00.301Z,2.48
2023-02-11T04:37:00.384Z,2.47
2023-02-11T04:38:00.469Z,2.48
2023-02-11T04:39:00.537Z,2.48
2023-02-11T04:40:00.657Z,2.47
2023-02-11T04:41:00.721Z,2.44
2023-02-11T04:42:00.809Z,2.47
2023-02-11T04:43:00.855Z,2.47
2023-02-11T04:44:00.937Z,2.48
2023-02-11T04:45:01.013Z,2.45
2023-02-11T04:46:01.160Z,2.45
2023-02-11T04:47:01.168Z,2.44
2023-02-11T04:48:01.232Z,2.41
2023-02-11T04:49:01.339Z,2.41
2023-02-11T04:50:01.439Z,2.43
2023-02-11T04:51:01.481Z,2.44
2023-02-11T04:52:01.559Z,2.48
2023-02-11T04:53:01.634Z,2.51
2023-02-11T04:54:01.730Z,2.56
2023-02-11T04:55:01.865Z,2.61
2023-02-11T04:56:01.893Z,2.65
2023-02-11T04:57:01.956Z,2.66
2023-02-11T04:58:02.041Z,2.71
2023-02-11T04:59:02.120Z,2.76
2023-02-11T05:00:02.216Z,2.79
2023-02-11T05:01:02.308Z,2.83
2023-02-11T05:02:02.368Z,2.86
2023-02-11T05:03:02.453Z,2.90
2023-02-11T05:04:02.574Z,2.94
2023-02-11T05:05:02.641Z,2.98
2023-02-11T05:06:02.704Z,3.01
2023-02-11T05:07:02.790Z,3.04
2023-02-11T05:08:02.860Z,3.07
2023-02-11T05:09:02.950Z,3.12
2023-02-11T05:10:03.050Z,3.15
2023-02-11T05:11:03.120Z,3.19
2023-02-11T05:12:03.209Z,3.22
2023-02-11T05:13:03.269Z,3.26
2023-02-11T05:14:03.370Z,3.30
2023-02-11T05:15:03.481Z,3.34
2023-02-11T05:16:03.541Z,3.39
2023-02-11T05:17:03.855Z,3.42
2023-02-11T05:18:03.702Z,3.45
2023-02-11T05:19:03.794Z,3.50
2023-02-11T05:20:03.906Z,3.53
2023-02-11T05:21:03.940Z,3.59
2023-02-11T05:22:04.043Z,3.60
2023-02-11T05:23:04.110Z,3.63
2023-02-11T05:24:04.201Z,3.70
2023-02-11T05:25:04.305Z,3.72
2023-02-11T05:26:04.363Z,3.74
2023-02-11T05:27:04.458Z,3.78
2023-02-11T05:28:04.665Z,3.81
2023-02-11T05:29:04.583Z,3.86
2023-02-11T05:30:04.680Z,3.89
2023-02-11T05:31:04.802Z,3.92
2023-02-11T05:32:04.850Z,3.93
2023-02-11T05:33:04.917Z,3.95
2023-02-11T05:34:04.990Z,3.96
2023-02-11T05:35:05.081Z,3.98
2023-02-11T05:36:05.157Z,3.99
2023-02-11T05:37:05.311Z,4.02
2023-02-11T05:38:05.347Z,4.04
2023-02-11T05:39:05.417Z,4.06
2023-02-11T05:40:05.510Z,4.07
2023-02-11T05:41:05.575Z,4.07
2023-02-11T05:42:05.658Z,4.08
2023-02-11T05:43:05.727Z,4.10
2023-02-11T05:44:05.797Z,4.11
2023-02-11T05:45:05.905Z,4.14
2023-02-11T05:46:06.072Z,4.14
2023-02-11T05:47:06.043Z,4.16
2023-02-11T05:48:06.122Z,4.16
2023-02-11T05:49:06.169Z,4.14
2023-02-11T05:50:06.275Z,4.18
2023-02-11T05:51:06.326Z,4.17
2023-02-11T05:52:06.416Z,4.17
2023-02-11T05:53:06.473Z,4.18
2023-02-11T05:54:06.550Z,4.16
2023-02-11T05:55:06.666Z,4.16
2023-02-11T05:56:06.741Z,4.18
2023-02-11T05:57:06.802Z,4.18
2023-02-11T05:58:06.877Z,4.24
2023-02-11T05:59:06.934Z,4.24
2023-02-11T06:00:07.054Z,4.25
2023-02-11T06:01:07.124Z,4.24
2023-02-11T06:02:07.219Z,4.26
2023-02-11T06:03:07.304Z,4.28
2023-02-11T06:04:07.415Z,4.29
2023-02-11T06:05:07.496Z,4.31
2023-02-11T06:06:07.599Z,4.34
2023-02-11T06:07:07.679Z,4.34
2023-02-11T06:08:07.763Z,4.34
2023-02-11T06:09:07.872Z,4.35
2023-02-11T06:10:08.014Z,4.35
2023-02-11T06:11:08.037Z,4.35
2023-02-11T06:12:08.118Z,4.35
2023-02-11T06:13:08.186Z,4.34
2023-02-11T06:14:08.266Z,4.31
2023-02-11T06:15:08.368Z,4.28
2023-02-11T06:16:08.450Z,4.29
2023-02-11T06:17:08.510Z,4.31
2023-02-11T06:18:08.571Z,4.31
2023-02-11T06:19:08.633Z,4.31
2023-02-11T06:20:08.718Z,4.32
2023-02-11T06:21:08.772Z,4.34
2023-02-11T06:22:08.864Z,4.35
2023-02-11T06:23:08.923Z,4.36
2023-02-11T06:24:09.012Z,4.39
2023-02-11T06:25:09.109Z,4.39
2023-02-11T06:26:09.177Z,4.42
2023-02-11T06:27:09.265Z,4.44
2023-02-11T06:28:09.390Z,4.49
2023-02-11T06:29:09.431Z,4.49
2023-02-11T06:30:09.546Z,4.50
2023-02-11T06:31:09.795Z,4.53
2023-02-11T06:32:20.462Z,4.56
2023-02-11T06:33:09.775Z,4.57
2023-02-11T06:34:09.897Z,4.59
2023-02-11T06:35:11.931Z,4.62
2023-02-11T06:36:10.036Z,4.65
2023-02-11T06:37:10.095Z,4.65
2023-02-11T06:38:10.175Z,4.65
2023-02-11T06:39:10.235Z,4.69
2023-02-11T06:40:10.353Z,4.71
2023-02-11T06:41:10.418Z,4.68
2023-02-11T06:42:10.516Z,4.67
2023-02-11T06:43:10.583Z,4.65
2023-02-11T06:44:10.683Z,4.64
2023-02-11T06:45:10.763Z,4.62
2023-02-11T06:46:10.864Z,4.64
2023-02-11T06:47:10.903Z,4.62
2023-02-11T06:48:11.007Z,4.64
2023-02-11T06:49:11.080Z,4.64
2023-02-11T06:50:11.160Z,4.68
2023-02-11T06:51:11.225Z,4.68
2023-02-11T06:52:11.313Z,4.71
2023-02-11T06:53:11.405Z,4.74
2023-02-11T06:54:11.499Z,4.75
2023-02-11T06:55:11.579Z,4.79
2023-02-11T06:56:11.678Z,4.77
2023-02-11T06:57:11.686Z,4.80
2023-02-11T06:58:11.811Z,4.80
2023-02-11T06:59:11.872Z,4.80
2023-02-11T07:00:12.009Z,4.84
2023-02-11T07:01:12.053Z,4.84
2023-02-11T07:02:12.248Z,4.84
2023-02-11T07:03:12.226Z,4.86
2023-02-11T07:04:12.286Z,4.84
2023-02-11T07:05:12.389Z,4.84
2023-02-11T07:06:12.459Z,4.84
2023-02-11T07:07:12.536Z,4.80
2023-02-11T07:08:12.643Z,4.83
2023-02-11T07:09:12.713Z,4.87
2023-02-11T07:10:12.857Z,4.84
2023-02-11T07:11:12.897Z,4.86
2023-02-11T07:12:12.991Z,4.86
2023-02-11T07:13:13.067Z,4.87
2023-02-11T07:14:13.173Z,4.86
2023-02-11T07:15:13.277Z,4.87
2023-02-11T07:16:13.444Z,4.88
2023-02-11T07:17:13.427Z,4.88
2023-02-11T07:18:14.760Z,4.87
2023-02-11T07:19:13.591Z,4.88
2023-02-11T07:20:13.678Z,4.87
2023-02-11T07:21:13.754Z,4.88
2023-02-11T07:22:13.855Z,4.88
2023-02-11T07:23:13.934Z,4.91
2023-02-11T07:24:14.046Z,4.93
2023-02-11T07:25:14.161Z,4.94
2023-02-11T07:26:14.227Z,4.94
2023-02-11T07:27:14.310Z,4.94
2023-02-11T07:28:14.421Z,4.96
2023-02-11T07:29:14.491Z,4.94
2023-02-11T07:30:14.593Z,4.93
2023-02-11T07:31:14.904Z,4.94
2023-02-11T07:32:14.810Z,4.91
2023-02-11T07:33:14.858Z,4.91
2023-02-11T07:34:14.938Z,4.88
2023-02-11T07:35:15.053Z,4.90
2023-02-11T07:36:15.109Z,4.88
2023-02-11T07:37:15.218Z,4.90
2023-02-11T07:38:15.284Z,4.90
2023-02-11T07:39:15.355Z,4.90
2023-02-11T07:40:15.477Z,4.91
2023-02-11T07:41:15.542Z,4.91
2023-02-11T07:42:15.611Z,4.93
2023-02-11T07:43:15.715Z,4.94
2023-02-11T07:44:15.795Z,4.96
2023-02-11T07:45:15.886Z,4.96
2023-02-11T07:46:15.955Z,4.96
2023-02-11T07:47:16.032Z,4.97
2023-02-11T07:48:16.095Z,5.01
2023-02-11T07:49:16.172Z,5.01
2023-02-11T07:50:16.281Z,5.01
2023-02-11T07:51:16.368Z,4.99
2023-02-11T07:52:16.440Z,4.99
2023-02-11T07:53:16.525Z,4.99
2023-02-11T07:54:16.596Z,4.99
2023-02-11T07:55:16.725Z,5.02
2023-02-11T07:56:16.778Z,5.01
2023-02-11T07:57:16.859Z,5.06
2023-02-11T07:58:16.926Z,5.09
2023-02-11T07:59:17.014Z,5.09
2023-02-11T08:00:18.845Z,5.12
2023-02-11T08:01:17.367Z,5.12
2023-02-11T08:02:17.389Z,5.17
2023-02-11T08:03:17.343Z,5.17
2023-02-11T08:04:17.447Z,5.17
2023-02-11T08:05:17.543Z,5.19
2023-02-11T08:06:17.609Z,5.20
2023-02-11T08:07:17.698Z,5.22
2023-02-11T08:08:17.764Z,5.22
2023-02-11T08:09:17.870Z,5.23
2023-02-11T08:10:17.962Z,5.26
2023-02-11T08:11:18.050Z,5.27
2023-02-11T08:12:18.122Z,5.27
2023-02-11T08:13:18.212Z,5.30
2023-02-11T08:14:18.265Z,5.29
2023-02-11T08:15:18.366Z,5.32
2023-02-11T08:16:18.479Z,5.26
2023-02-11T08:17:18.522Z,5.26
2023-02-11T08:18:18.607Z,5.27
2023-02-11T08:19:18.689Z,5.26
2023-02-11T08:20:18.785Z,5.29
2023-02-11T08:21:18.868Z,5.27
2023-02-11T08:22:18.927Z,5.23
2023-02-11T08:23:19.004Z,5.23
2023-02-11T08:24:19.080Z,5.20
2023-02-11T08:25:19.183Z,5.22
2023-02-11T08:26:19.223Z,5.20
2023-02-11T08:27:19.302Z,5.20
2023-02-11T08:28:19.377Z,5.20
2023-02-11T08:29:19.450Z,5.22
2023-02-11T08:30:19.546Z,5.23
2023-02-11T08:31:19.829Z,5.26
2023-02-11T08:32:19.723Z,5.26
2023-02-11T08:33:19.790Z,5.29
2023-02-11T08:34:19.875Z,5.33
2023-02-11T08:35:20.022Z,5.35
2023-02-11T08:36:20.033Z,5.37
2023-02-11T08:37:20.108Z,5.35
2023-02-11T08:38:20.171Z,5.27
2023-02-11T08:39:21.053Z,5.27
2023-02-11T08:40:20.382Z,5.30
2023-02-11T08:41:20.447Z,5.32
2023-02-11T08:42:20.541Z,5.35
2023-02-11T08:43:20.629Z,5.38
2023-02-11T08:44:20.692Z,5.38
2023-02-11T08:45:20.804Z,5.42
2023-02-11T08:46:20.899Z,5.42
2023-02-11T08:47:20.934Z,5.47
2023-02-11T08:48:21.024Z,5.48
2023-02-11T08:49:21.098Z,5.48
2023-02-11T08:50:21.196Z,5.49
2023-02-11T08:51:21.249Z,5.51
2023-02-11T08:52:21.313Z,5.52
2023-02-11T08:53:21.417Z,5.52
2023-02-11T08:54:21.478Z,5.49
2023-02-11T08:55:21.579Z,5.48
2023-02-11T08:56:21.636Z,5.51
2023-02-11T08:57:21.737Z,5.52
2023-02-11T08:58:21.813Z,5.52
2023-02-11T08:59:21.892Z,5.56
2023-02-11T09:00:21.979Z,5.58
2023-02-11T09:01:23.108Z,5.59
2023-02-11T09:02:22.150Z,5.62
2023-02-11T09:03:22.219Z,5.63
2023-02-11T09:04:22.262Z,5.65
2023-02-11T09:05:22.369Z,5.69
2023-02-11T09:06:22.536Z,5.66
2023-02-11T09:07:22.520Z,5.60
2023-02-11T09:08:22.604Z,5.58
2023-02-11T09:09:22.706Z,5.55
2023-02-11T09:10:22.865Z,5.55
2023-02-11T09:11:22.889Z,5.55
2023-02-11T09:12:22.952Z,5.58
2023-02-11T09:13:23.037Z,5.60
2023-02-11T09:14:23.121Z,5.60
2023-02-11T09:15:23.213Z,5.65
2023-02-11T09:16:23.310Z,5.67
2023-02-11T09:17:23.354Z,5.70
2023-02-11T09:18:23.430Z,5.69
2023-02-11T09:19:23.517Z,5.69
2023-02-11T09:20:23.577Z,5.69
2023-02-11T09:21:23.659Z,5.73
2023-02-11T09:22:23.727Z,5.75
2023-02-11T09:23:23.832Z,5.77
2023-02-11T09:24:23.919Z,5.78
2023-02-11T09:25:24.034Z,5.81
2023-02-11T09:26:24.107Z,5.84
2023-02-11T09:27:24.191Z,5.87
2023-02-11T09:28:24.349Z,5.92
2023-02-11T09:29:24.355Z,5.96
2023-02-11T09:30:24.444Z,5.98
2023-02-11T09:31:24.734Z,6.02
2023-02-11T09:32:24.595Z,6.03
2023-02-11T09:33:24.673Z,6.06
2023-02-11T09:34:24.759Z,6.13
2023-02-11T09:35:24.885Z,6.13
2023-02-11T09:36:24.948Z,6.17
2023-02-11T09:37:24.998Z,6.19
2023-02-11T09:38:25.056Z,6.19
2023-02-11T09:39:25.127Z,6.24
2023-02-11T09:40:25.213Z,6.27
2023-02-11T09:41:25.247Z,6.32
2023-02-11T09:42:25.331Z,6.30
2023-02-11T09:43:25.402Z,6.35
2023-02-11T09:44:25.484Z,6.38
2023-02-11T09:45:25.600Z,6.40
2023-02-11T09:46:25.797Z,6.42
2023-02-11T09:47:25.717Z,6.43
2023-02-11T09:48:25.802Z,6.48
2023-02-11T09:49:25.881Z,6.50
2023-02-11T09:50:25.973Z,6.53
2023-02-11T09:51:26.032Z,6.55
2023-02-11T09:52:26.102Z,6.58
2023-02-11T09:53:26.216Z,6.60
2023-02-11T09:54:26.272Z,6.64
2023-02-11T09:55:26.379Z,6.65
2023-02-11T09:56:26.437Z,6.69
2023-02-11T09:57:29.023Z,6.71
2023-02-11T09:58:26.571Z,6.73
2023-02-11T09:59:26.676Z,6.78
2023-02-11T10:00:26.769Z,6.79
2023-02-11T10:01:26.867Z,6.86
2023-02-11T10:02:26.891Z,6.87
2023-02-11T10:03:26.994Z,6.90
2023-02-11T10:04:27.086Z,6.91
2023-02-11T10:05:27.157Z,6.94
2023-02-11T10:06:27.183Z,6.99
2023-02-11T10:07:27.269Z,7.01
2023-02-11T10:08:27.333Z,7.07
2023-02-11T10:09:27.418Z,7.09
2023-02-11T10:10:27.501Z,7.09
2023-02-11T10:11:31.857Z,7.15
2023-02-11T10:12:27.652Z,7.18
2023-02-11T10:13:27.730Z,7.23
2023-02-11T10:14:27.820Z,7.26
2023-02-11T10:15:27.980Z,7.29
2023-02-11T10:16:28.059Z,7.27
2023-02-11T10:17:28.104Z,7.33
2023-02-11T10:18:28.188Z,7.33
2023-02-11T10:19:28.273Z,7.36
2023-02-11T10:20:28.376Z,7.37
2023-02-11T10:21:28.459Z,7.42
2023-02-11T10:22:28.513Z,7.45
2023-02-11T10:23:28.601Z,7.45
2023-02-11T10:24:28.688Z,7.50
2023-02-11T10:25:28.795Z,7.52
2023-02-11T10:26:28.841Z,7.54
2023-02-11T10:27:28.940Z,7.55
2023-02-11T10:28:29.114Z,7.58
2023-02-11T10:29:29.107Z,7.62
2023-02-11T10:30:29.214Z,7.66
2023-02-11T10:31:29.404Z,7.69
2023-02-11T10:32:29.324Z,7.73
2023-02-11T10:33:29.414Z,7.77
2023-02-11T10:34:29.488Z,7.77
2023-02-11T10:35:29.605Z,7.77
2023-02-11T10:36:29.671Z,7.79
2023-02-11T10:37:29.769Z,7.82
2023-02-11T10:38:29.851Z,7.82
2023-02-11T10:39:29.905Z,7.84
2023-02-11T10:40:30.003Z,7.85
2023-02-11T10:41:30.055Z,7.86
2023-02-11T10:42:30.109Z,7.91
2023-02-11T10:43:30.201Z,7.91
2023-02-11T10:44:30.297Z,7.95
2023-02-11T10:45:30.397Z,7.96
2023-02-11T10:46:30.473Z,7.95
2023-02-11T10:47:30.556Z,7.96
2023-02-11T10:48:30.617Z,7.99
2023-02-11T10:49:30.722Z,7.99
2023-02-11T10:50:30.808Z,7.96
2023-02-11T10:51:30.896Z,7.99
2023-02-11T10:52:30.976Z,7.99
2023-02-11T10:53:31.077Z,8.00
2023-02-11T10:54:31.156Z,8.02
2023-02-11T10:55:31.283Z,8.00
2023-02-11T10:56:31.339Z,8.04
2023-02-11T10:57:31.443Z,8.07
2023-02-11T10:58:31.506Z,8.10
2023-02-11T10:59:31.608Z,8.12
2023-02-11T11:00:31.690Z,8.12
2023-02-11T11:01:31.798Z,8.20
2023-02-11T11:02:31.916Z,8.20
2023-02-11T11:03:31.947Z,8.17
2023-02-11T11:04:32.114Z,8.14
2023-02-11T11:05:32.177Z,8.14
2023-02-11T11:06:32.205Z,8.14
2023-02-11T11:07:32.286Z,8.14
2023-02-11T11:08:32.366Z,8.17
2023-02-11T11:09:32.466Z,8.20
2023-02-11T11:10:32.586Z,8.17
2023-02-11T11:11:32.663Z,8.14
2023-02-11T11:12:32.733Z,8.17
2023-02-11T11:13:32.838Z,8.13
2023-02-11T11:14:32.918Z,8.09
2023-02-11T11:15:33.011Z,8.09
2023-02-11T11:16:33.058Z,8.10
2023-02-11T11:17:33.150Z,8.09
2023-02-11T11:18:33.240Z,8.07
2023-02-11T11:19:33.329Z,8.07
2023-02-11T11:20:33.431Z,8.07
2023-02-11T11:21:33.496Z,8.06
2023-02-11T11:22:33.583Z,8.06
2023-02-11T11:23:33.675Z,8.07
2023-02-11T11:24:33.763Z,8.07
2023-02-11T11:25:33.874Z,8.06
2023-02-11T11:26:33.916Z,8.04
2023-02-11T11:27:34.013Z,8.02
2023-02-11T11:28:34.128Z,8.02
2023-02-11T11:29:34.211Z,8.02
2023-02-11T11:30:34.342Z,8.02
2023-02-11T11:31:34.557Z,8.03
2023-02-11T11:32:34.436Z,8.02
2023-02-11T11:33:34.506Z,8.03
2023-02-11T11:34:34.558Z,8.03
2023-02-11T11:35:34.681Z,8.02
2023-02-11T11:36:34.733Z,8.04
2023-02-11T11:37:34.812Z,8.07
2023-02-11T11:38:34.864Z,8.09
2023-02-11T11:39:34.960Z,8.09
2023-02-11T11:40:35.021Z,8.07
2023-02-11T11:41:35.107Z,8.09
2023-02-11T11:42:35.192Z,8.10
2023-02-11T11:43:35.263Z,8.10
2023-02-11T11:44:35.350Z,8.10
2023-02-11T11:45:35.447Z,8.12
2023-02-11T11:46:35.557Z,8.10
2023-02-11T11:47:35.598Z,8.07
2023-02-11T11:48:35.706Z,8.04
2023-02-11T11:49:35.796Z,8.03
2023-02-11T11:50:35.871Z,8.00
2023-02-11T11:51:35.932Z,7.92
2023-02-11T11:52:36.001Z,7.91
2023-02-11T11:53:36.084Z,7.88
2023-02-11T11:54:36.193Z,7.86
2023-02-11T11:55:36.293Z,7.84
2023-02-11T11:56:36.378Z,7.84
2023-02-11T11:57:36.465Z,7.84
2023-02-11T11:58:36.550Z,7.79
2023-02-11T11:59:36.630Z,7.76
2023-02-11T12:00:36.734Z,7.77
2023-02-11T12:01:36.858Z,7.76
2023-02-11T12:02:36.886Z,7.76
2023-02-11T12:03:36.973Z,7.74
2023-02-11T12:04:37.042Z,7.74
2023-02-11T12:05:37.142Z,7.76
2023-02-11T12:06:37.220Z,7.79
2023-02-11T12:07:37.307Z,7.77
2023-02-11T12:08:37.389Z,7.77
2023-02-11T12:09:37.472Z,7.76
2023-02-11T12:10:37.567Z,7.74
2023-02-11T12:11:37.612Z,7.71
2023-02-11T12:12:37.709Z,7.73
2023-02-11T12:13:37.805Z,7.73
2023-02-11T12:14:37.904Z,7.71
2023-02-11T12:15:38.034Z,7.70
2023-02-11T12:16:38.171Z,7.70
2023-02-11T12:17:38.167Z,7.69
2023-02-11T12:18:38.278Z,7.70
2023-02-11T12:19:38.326Z,7.70
2023-02-11T12:20:38.450Z,7.70
2023-02-11T12:21:38.495Z,7.69
2023-02-11T12:22:38.593Z,7.69
2023-02-11T12:23:38.665Z,7.69
2023-02-11T12:24:38.773Z,7.70
2023-02-11T12:25:38.846Z,7.69
2023-02-11T12:26:38.911Z,7.69
2023-02-11T12:27:38.974Z,7.70
2023-02-11T12:28:39.158Z,7.71
2023-02-11T12:29:39.167Z,7.73
2023-02-11T12:30:39.389Z,7.71
2023-02-11T12:31:39.343Z,7.71
2023-02-11T12:32:39.403Z,7.74
2023-02-11T12:33:39.504Z,7.73
2023-02-11T12:34:39.562Z,7.73
2023-02-11T12:35:39.670Z,7.77
2023-02-11T12:36:39.748Z,7.79
2023-02-11T12:37:39.820Z,7.79
2023-02-11T12:38:39.892Z,7.82
2023-02-11T12:39:39.945Z,7.82
2023-02-11T12:40:40.048Z,7.82
2023-02-11T12:41:40.105Z,7.81
2023-02-11T12:42:40.218Z,7.82
2023-02-11T12:43:40.256Z,7.84
2023-02-11T12:44:40.340Z,7.81
2023-02-11T12:45:40.465Z,7.81
2023-02-11T12:46:40.493Z,7.79
2023-02-11T12:47:40.564Z,7.81
2023-02-11T12:48:40.729Z,7.81
2023-02-11T12:49:40.736Z,7.84
2023-02-11T12:50:40.840Z,7.84
2023-02-11T12:51:40.898Z,7.85
2023-02-11T12:52:40.985Z,7.86
2023-02-11T12:53:41.045Z,7.81
2023-02-11T12:54:41.139Z,7.81
2023-02-11T12:55:41.238Z,7.79
2023-02-11T12:56:41.319Z,7.79
2023-02-11T12:57:41.375Z,7.76
2023-02-11T12:58:45.395Z,7.76
2023-02-11T12:59:41.561Z,7.76
2023-02-11T13:00:41.733Z,7.77
2023-02-11T13:01:41.805Z,7.77
2023-02-11T13:02:41.892Z,7.76
2023-02-11T13:03:41.905Z,7.76
2023-02-11T13:04:41.975Z,7.77
2023-02-11T13:05:42.042Z,7.77
2023-02-11T13:06:42.107Z,7.82
2023-02-11T13:07:42.193Z,7.84
2023-02-11T13:08:42.274Z,7.85
2023-02-11T13:09:42.366Z,7.86
2023-02-11T13:10:42.464Z,7.85
2023-02-11T13:11:42.511Z,7.84
2023-02-11T13:12:42.602Z,7.86
2023-02-11T13:13:42.663Z,7.86
2023-02-11T13:14:42.747Z,7.82
2023-02-11T13:15:42.864Z,7.85
2023-02-11T13:16:43.027Z,7.84
2023-02-11T13:17:43.003Z,7.81
2023-02-11T13:18:43.076Z,7.77
2023-02-11T13:19:43.167Z,7.81
2023-02-11T13:20:43.261Z,7.79
2023-02-11T13:21:43.319Z,7.79